Time;durP1;ratioP1;P1;durP2;ratioP2;P2;SDS_P1;SDS_P2;PMS_P1;PMS_P2;Temp;Humidity;BMP_temperature;BMP_pressure;BME280_temperature;BME280_humidity;BME280_pressure;Samples;Min_cycle;Max_cycle;Signal;HPM_P1;HPM_P2
2023/06/01 00:00:34;;;;;;;25.35;21.90;;;;;;;25.95;36.25;101861.59;20992704;28;20507;-66
2023/06/01 00:10:36;;;;;;;24.33;20.70;;;;;;;25.94;36.14;101874.78;20993299;28;20495;-67
2023/06/01 00:20:40;;;;;;;24.65;20.45;;;;;;;25.63;36.53;101834.91;20991909;28;20037;-67
2023/06/01 00:30:41;;;;;;;21.92;19.25;;;;;;;25.94;36.84;101882.38;21006572;28;20185;-67
2023/06/01 00:40:49;;;;;;;20.35;17.85;;;;;;;25.85;36.79;101863.38;21005386;28;20059;-67
2023/06/01 00:50:56;;;;;;;23.75;19.70;;;;;;;25.90;37.16;101881.28;21004034;28;20033;-66
2023/06/01 01:00:58;;;;;;;20.80;18.33;;;;;;;25.86;37.14;101886.63;21004135;28;20537;-66
2023/06/01 01:11:12;;;;;;;19.50;16.95;;;;;;;25.78;37.26;101890.88;21003459;28;20036;-66
2023/06/01 01:21:30;;;;;;;19.13;17.13;;;;;;;25.94;37.18;101910.41;21001629;28;20530;-67
2023/06/01 01:31:34;;;;;;;21.25;16.77;;;;;;;25.26;37.38;101811.06;21002119;28;20480;-67
2023/06/01 01:41:35;;;;;;;17.83;15.88;;;;;;;25.74;37.24;101894.53;21001252;28;20109;-67
2023/06/01 01:51:55;;;;;;;18.88;15.60;;;;;;;25.93;37.32;101925.53;21000329;28;20028;-67
2023/06/01 02:01:56;;;;;;;16.52;14.80;;;;;;;25.92;37.32;101947.16;20998981;28;20040;-65
2023/06/01 02:11:58;;;;;;;15.65;13.65;;;;;;;25.91;37.59;101955.84;20998764;28;20102;-67
2023/06/01 02:21:59;;;;;;;16.60;14.70;;;;;;;25.83;37.54;101946.91;20997505;28;20048;-66
2023/06/01 02:32:01;;;;;;;16.27;14.23;;;;;;;25.90;37.44;101952.22;20996778;28;20392;-65
2023/06/01 02:42:02;;;;;;;16.52;13.82;;;;;;;25.89;37.65;101936.53;20995695;28;20040;-66
2023/06/01 02:52:04;;;;;;;15.32;13.35;;;;;;;25.92;37.78;101932.28;20994097;28;20059;-67
2023/06/01 03:02:05;;;;;;;14.80;13.30;;;;;;;25.91;37.62;101927.81;20993860;28;20438;-66
2023/06/01 03:12:09;;;;;;;14.55;12.80;;;;;;;25.72;37.68;101911.66;20993860;28;20442;-66
2023/06/01 03:22:11;;;;;;;16.73;13.23;;;;;;;25.90;37.58;101934.56;20993237;28;20036;-67
2023/06/01 03:32:14;;;;;;;14.68;13.10;;;;;;;25.90;37.79;101943.81;20993274;28;20032;-67
2023/06/01 03:42:19;;;;;;;15.15;12.88;;;;;;;25.90;37.56;101948.59;20992568;28;20067;-67
2023/06/01 03:52:20;;;;;;;13.50;12.07;;;;;;;25.82;37.90;101928.44;20992391;28;20048;-65
2023/06/01 04:02:22;;;;;;;13.75;11.93;;;;;;;25.88;37.91;101931.19;21005329;28;20091;-66
2023/06/01 04:12:24;;;;;;;12.73;11.43;;;;;;;25.86;38.03;101934.28;21008129;28;20041;-66
2023/06/01 04:22:25;;;;;;;12.82;11.52;;;;;;;25.87;37.82;101937.94;21007407;28;20475;-66
2023/06/01 04:32:27;;;;;;;12.40;11.10;;;;;;;25.85;38.00;101953.09;21007149;28;20041;-65
2023/06/01 04:42:31;;;;;;;12.13;10.75;;;;;;;25.86;38.11;101953.94;21005750;28;20058;-66
2023/06/01 04:52:32;;;;;;;13.40;11.35;;;;;;;25.59;37.74;101906.69;21004733;28;20040;-66
2023/06/01 05:02:34;;;;;;;12.60;10.45;;;;;;;25.85;37.99;101941.88;21003834;28;20060;-65
2023/06/01 05:12:37;;;;;;;11.82;10.43;;;;;;;25.84;37.93;101934.59;21002676;28;20071;-66
2023/06/01 05:22:41;;;;;;;12.10;9.55;;;;;;;25.84;38.08;101931.78;21003063;28;20094;-66
2023/06/01 05:32:42;;;;;;;11.30;9.82;;;;;;;25.31;38.08;101832.59;21001870;28;20094;-66
2023/06/01 05:42:43;;;;;;;11.90;9.73;;;;;;;25.82;38.15;101922.81;21001354;28;20537;-65
2023/06/01 05:52:45;;;;;;;11.10;9.90;;;;;;;25.81;38.08;101907.13;20999890;28;20043;-65
2023/06/01 06:02:46;;;;;;;12.60;10.38;;;;;;;25.69;38.29;101880.53;20999172;28;20049;-66
2023/06/01 06:12:48;;;;;;;10.73;9.60;;;;;;;25.78;38.41;101879.66;20998139;28;20094;-66
2023/06/01 06:22:51;;;;;;;10.85;9.27;;;;;;;25.76;38.30;101881.94;20997276;28;20071;-65
2023/06/01 06:32:52;;;;;;;10.57;9.00;;;;;;;25.76;38.35;101887.53;20997196;28;20133;-66
2023/06/01 06:42:53;;;;;;;10.95;8.75;;;;;;;25.77;38.30;101878.00;20994746;28;20399;-65
2023/06/01 06:53:06;;;;;;;9.38;8.38;;;;;;;25.74;38.34;101872.94;21255222;27;1955458;-62
2023/06/01 07:03:10;;;;;;;10.05;8.73;;;;;;;25.75;38.54;101871.81;21234194;27;20539;-62
2023/06/01 07:13:11;;;;;;;9.98;8.68;;;;;;;25.74;38.56;101860.88;21231933;28;20043;-62
2023/06/01 07:23:13;;;;;;;11.32;9.05;;;;;;;25.70;38.81;101849.41;21221682;28;20548;-62
2023/06/01 07:33:20;;;;;;;9.82;8.27;;;;;;;25.71;38.81;101844.66;21147836;28;20600;-62
2023/06/01 07:43:22;;;;;;;10.18;8.10;;;;;;;25.71;38.69;101848.31;21146396;28;20036;-62
2023/06/01 07:53:23;;;;;;;9.32;8.27;;;;;;;25.70;38.63;101849.41;21144630;28;20040;-62
2023/06/01 08:03:25;;;;;;;11.63;8.35;;;;;;;25.69;38.60;101861.75;21093903;28;20483;-62
2023/06/01 08:13:27;;;;;;;9.98;8.07;;;;;;;25.69;38.89;101858.97;21088053;28;20040;-62
2023/06/01 08:23:28;;;;;;;8.02;7.22;;;;;;;25.67;38.78;101872.44;21086627;28;20368;-62
2023/06/01 08:33:32;;;;;;;7.97;7.18;;;;;;;25.64;38.90;101861.81;21085703;28;20540;-62
2023/06/01 08:43:41;;;;;;;8.43;7.30;;;;;;;25.47;38.73;101822.94;21085084;28;20483;-62
2023/06/01 08:53:44;;;;;;;9.25;8.35;;;;;;;25.65;38.88;101841.03;21084487;28;20047;-62
2023/06/01 09:03:45;;;;;;;8.27;7.38;;;;;;;25.61;38.89;101856.75;21083332;28;20434;-62
2023/06/01 09:13:49;;;;;;;9.15;7.47;;;;;;;25.63;38.92;101870.50;21081836;28;20066;-62
2023/06/01 09:23:54;;;;;;;7.97;6.65;;;;;;;25.62;38.93;101878.09;21081481;28;20040;-62
2023/06/01 09:34:01;;;;;;;10.13;7.72;;;;;;;25.58;39.02;101891.00;21081009;28;20437;-62
2023/06/01 09:44:03;;;;;;;9.07;6.90;;;;;;;25.51;39.13;101882.06;21079246;28;20441;-62
2023/06/01 09:54:04;;;;;;;7.85;6.57;;;;;;;25.57;39.08;101895.78;21079123;28;20264;-62
2023/06/01 10:04:06;;;;;;;8.10;7.30;;;;;;;25.51;39.11;101880.09;21078394;28;20048;-62
2023/06/01 10:14:10;;;;;;;8.93;7.18;;;;;;;25.43;39.12;101883.53;21078817;28;20379;-62
2023/06/01 10:24:13;;;;;;;9.73;7.07;;;;;;;25.47;39.23;101901.41;21077449;28;20044;-62
2023/06/01 10:34:14;;;;;;;8.18;6.72;;;;;;;25.41;39.57;101896.13;21076281;28;20497;-63
2023/06/01 10:44:54;;;;;;;7.97;6.47;;;;;;;25.40;39.42;101906.50;21076663;28;20040;-62
2023/06/01 10:55:11;;;;;;;6.90;6.03;;;;;;;25.43;39.62;101900.34;20867533;28;20036;-62
2023/06/01 11:05:40;;;;;;;8.63;6.78;;;;;;;25.41;39.66;101901.75;21075592;28;20036;-62
2023/06/01 11:16:01;;;;;;;7.18;6.05;;;;;;;25.41;39.59;101896.97;21074349;28;20044;-62
2023/06/01 11:26:06;;;;;;;9.40;7.30;;;;;;;25.32;39.55;101893.09;21075227;28;20382;-62
2023/06/01 11:36:14;;;;;;;7.47;6.65;;;;;;;25.47;39.46;101931.41;21084225;28;20536;-62
2023/06/01 11:46:16;;;;;;;7.40;6.60;;;;;;;25.41;39.37;101924.16;21089395;28;20102;-62
2023/06/01 11:56:17;;;;;;;7.55;6.75;;;;;;;25.48;39.50;101941.50;21089012;28;20048;-62
2023/06/01 12:06:24;;;;;;;7.53;6.72;;;;;;;25.35;39.60;101915.78;21088309;28;20056;-62
2023/06/01 12:16:52;;;;;;;7.18;6.38;;;;;;;25.42;39.66;101931.44;21087473;28;20043;-62
2023/06/01 12:26:53;;;;;;;9.40;6.40;;;;;;;25.45;39.23;101919.66;21087137;28;20487;-61
2023/06/01 12:36:55;;;;;;;8.07;6.78;;;;;;;25.52;39.44;101936.97;21085420;28;20541;-62
2023/06/01 12:46:58;;;;;;;6.43;5.80;;;;;;;25.54;39.24;101934.75;21084289;28;20040;-63
2023/06/01 12:57:00;;;;;;;6.82;6.13;;;;;;;25.56;39.43;101932.47;21082758;28;20052;-61
2023/06/01 13:07:02;;;;;;;6.47;5.70;;;;;;;25.55;39.41;101933.59;21083133;28;20040;-62
2023/06/01 13:17:03;;;;;;;7.63;5.75;;;;;;;25.59;39.40;101937.50;21082542;28;20016;-62
2023/06/01 13:27:08;;;;;;;7.50;5.25;;;;;;;25.57;39.14;101912.59;21081215;28;20036;-63
2023/06/01 13:37:12;;;;;;;7.40;5.70;;;;;;;25.63;39.42;101904.16;21080900;28;20024;-62
2023/06/01 13:47:15;;;;;;;6.80;5.95;;;;;;;25.63;39.46;101904.97;21079322;28;20040;-62
2023/06/01 13:57:16;;;;;;;6.65;5.80;;;;;;;25.63;39.26;101898.53;21077082;28;20090;-62
2023/06/01 14:07:17;;;;;;;6.07;4.93;;;;;;;25.62;39.35;101880.88;21078258;28;20040;-62
2023/06/01 14:17:19;;;;;;;6.90;5.72;;;;;;;25.67;39.05;101871.59;21077805;28;20066;-62
2023/06/01 14:27:21;;;;;;;5.90;5.13;;;;;;;25.72;39.08;101864.00;21077393;28;20048;-63
2023/06/01 14:37:24;;;;;;;6.00;5.28;;;;;;;25.76;39.00;101862.31;21076093;28;20048;-62
2023/06/01 14:47:26;;;;;;;5.32;4.60;;;;;;;25.79;38.96;101858.91;21075675;28;20105;-62
2023/06/01 14:57:27;;;;;;;6.07;5.00;;;;;;;25.80;38.96;101843.78;21075720;28;20044;-62
2023/06/01 15:07:29;;;;;;;5.50;4.80;;;;;;;25.67;38.87;101827.59;21079706;28;20188;-62
2023/06/01 15:17:30;;;;;;;5.00;4.50;;;;;;;25.81;38.97;101841.81;21089884;28;20406;-62
2023/06/01 15:27:31;;;;;;;5.13;4.60;;;;;;;25.83;38.78;101831.97;21090667;28;20105;-62
2023/06/01 15:37:33;;;;;;;5.78;4.85;;;;;;;25.83;38.89;101823.53;21090036;28;20045;-63
2023/06/01 15:47:34;;;;;;;4.47;4.07;;;;;;;25.76;39.02;101797.84;21082600;28;20185;-63
2023/06/01 15:57:38;;;;;;;5.22;4.50;;;;;;;25.88;39.00;101819.88;21088605;28;20117;-62
2023/06/01 16:07:40;;;;;;;5.45;4.82;;;;;;;25.91;38.65;101804.44;21087871;28;20093;-61
2023/06/01 16:17:41;;;;;;;4.88;4.38;;;;;;;25.92;39.10;101797.69;21086590;28;20439;-61
2023/06/01 16:27:43;;;;;;;7.13;5.90;;;;;;;25.96;38.59;101779.97;21085724;28;20040;-62
2023/06/01 16:37:45;;;;;;;6.55;5.78;;;;;;;25.77;38.53;101732.22;21085361;28;20020;-62
2023/06/01 16:47:49;;;;;;;6.65;5.80;;;;;;;25.96;38.33;101751.09;21084928;28;20035;-61
2023/06/01 16:57:50;;;;;;;9.63;6.22;;;;;;;25.92;38.04;101721.97;21083964;28;20036;-62
2023/06/01 17:07:52;;;;;;;8.48;6.65;;;;;;;26.04;37.93;101714.00;21083016;28;20069;-62
2023/06/01 17:17:54;;;;;;;8.60;6.53;;;;;;;26.16;37.43;101714.44;21082636;28;20081;-61
2023/06/01 17:27:55;;;;;;;9.77;6.88;;;;;;;26.22;37.02;101699.19;21080175;28;20066;-61
2023/06/01 17:37:56;;;;;;;9.07;6.80;;;;;;;26.15;36.82;101670.66;21080150;28;20112;-61
2023/06/01 17:47:58;;;;;;;9.38;6.88;;;;;;;26.26;36.46;101683.44;21079350;28;20048;-61
2023/06/01 17:57:59;;;;;;;9.70;7.57;;;;;;;26.23;36.47;101655.97;21079056;28;20036;-62
2023/06/01 18:08:01;;;;;;;9.93;8.35;;;;;;;26.27;36.48;101659.03;21078418;28;20047;-61
2023/06/01 18:18:02;;;;;;;8.23;7.30;;;;;;;26.30;36.18;101639.63;21077630;28;20044;-62
2023/06/01 18:28:04;;;;;;;11.10;8.30;;;;;;;26.32;36.08;101637.34;21077501;28;20105;-62
2023/06/01 18:38:05;;;;;;;9.05;7.00;;;;;;;26.33;36.27;101622.16;21074778;28;20359;-62
2023/06/01 18:48:07;;;;;;;9.38;7.43;;;;;;;26.30;36.44;101616.34;21075940;28;20044;-62
2023/06/01 18:58:09;;;;;;;9.20;7.40;;;;;;;26.31;36.76;101590.78;21075683;28;20491;-63
2023/06/01 19:08:20;;;;;;;8.35;7.18;;;;;;;26.36;36.68;101579.47;21075643;28;20044;-62
2023/06/01 19:18:22;;;;;;;9.27;7.07;;;;;;;26.35;36.67;101563.78;21075119;28;20471;-62
2023/06/01 19:28:23;;;;;;;9.25;7.05;;;;;;;26.44;36.31;101560.34;21074349;28;20036;-62
2023/06/01 19:38:24;;;;;;;10.20;7.88;;;;;;;26.43;36.31;101553.88;21074634;28;20066;-62
2023/06/01 19:48:32;;;;;;;8.88;6.90;;;;;;;26.30;36.44;101527.41;21074244;28;20541;-62
2023/06/01 19:58:33;;;;;;;10.80;7.45;;;;;;;26.46;36.36;101542.03;21085985;28;20048;-63
2023/06/01 20:08:34;;;;;;;8.43;6.97;;;;;;;26.48;36.24;101527.69;21088296;28;20036;-63
2023/06/01 20:18:36;;;;;;;10.13;7.47;;;;;;;26.52;35.84;101511.91;21087718;28;20044;-62
2023/06/01 20:28:54;;;;;;;8.77;7.38;;;;;;;26.49;35.69;101488.13;21086897;28;20048;-61
2023/06/01 20:38:58;;;;;;;9.10;6.88;;;;;;;26.48;36.01;101494.03;21086013;28;20036;-61
2023/06/01 20:49:01;;;;;;;8.23;7.07;;;;;;;26.55;36.25;101478.47;21084879;28;20070;-62
2023/06/01 20:59:07;;;;;;;7.55;6.47;;;;;;;26.55;36.16;101488.88;21084363;28;20471;-61
2023/06/01 21:09:12;;;;;;;8.05;6.70;;;;;;;26.57;36.09;101486.56;21083477;28;20044;-62
2023/06/01 21:19:14;;;;;;;8.38;6.82;;;;;;;26.56;36.13;101465.25;21082553;28;20040;-61
2023/06/01 21:29:15;;;;;;;7.07;6.20;;;;;;;26.62;36.12;101455.63;21080616;28;20141;-61
2023/06/01 21:39:17;;;;;;;8.82;6.07;;;;;;;26.66;36.07;101445.44;21081530;28;20040;-61
2023/06/01 21:49:19;;;;;;;7.10;6.05;;;;;;;26.64;36.01;101436.50;21079817;28;20040;-63
2023/06/01 21:59:24;;;;;;;7.97;6.47;;;;;;;26.68;36.09;101443.16;21078916;28;20048;-61
2023/06/01 22:09:26;;;;;;;7.95;6.32;;;;;;;26.67;35.37;101447.13;21078488;28;20073;-62
2023/06/01 22:19:27;;;;;;;8.55;6.57;;;;;;;26.68;36.02;101443.16;21077618;28;20040;-61
2023/06/01 22:29:29;;;;;;;8.38;6.32;;;;;;;26.66;35.06;101438.97;21076256;28;20040;-63
2023/06/01 22:39:33;;;;;;;8.40;6.50;;;;;;;26.66;35.79;101456.66;21077036;28;20040;-63
2023/06/01 22:49:34;;;;;;;8.00;6.18;;;;;;;26.68;35.54;101454.38;21076417;28;20432;-63
2023/06/01 22:59:36;;;;;;;7.05;6.28;;;;;;;26.70;35.98;101440.88;21076224;28;20052;-63
2023/06/01 23:09:38;;;;;;;9.32;7.50;;;;;;;26.71;36.26;101448.16;21076339;28;20032;-62
2023/06/01 23:19:44;;;;;;;7.05;6.30;;;;;;;26.68;36.23;101434.75;21075857;28;20540;-61
2023/06/01 23:29:48;;;;;;;8.18;7.00;;;;;;;26.71;36.42;101448.16;21081184;28;20141;-62
2023/06/01 23:39:50;;;;;;;7.90;6.68;;;;;;;26.68;36.69;101440.34;21089630;28;20036;-63
2023/06/01 23:49:52;;;;;;;8.50;6.60;;;;;;;26.74;36.91;101455.94;21090392;28;20052;-62
2023/06/01 23:59:53;;;;;;;9.00;7.25;;;;;;;26.72;36.73;101460.22;21089172;28;20560;-62
